Marthaville, Louisiana
Current Conditions -  °F | °C
As of 1:35 AM on Monday 22 Dec 2014 (Local Time) from KIER Reporting Station
Haze Haze  
Wind Chill: 50°   Ceiling: 300
Heat Index: 50°   Visibility: 5mi
Dew Point: 50°   Wind: 3mph
Humidity: 100%   Direction: 140°SE
Pressure: 29.89"   Gusts: NA
Location:  31.74°N, 93.4°W
Report Text: KIER 220735Z AUTO 14003KT 5SM BR OVC003 10/10 A2989 RMK AO2 T01000100
Loading
Personal Weather Stations






























Interactive Weather Map New forecast layout! Learn more

10-Day Weather Forecast

Advertisements
Track Severe Weather on mobile